Aviation Digital Data Service (ADDS)

Output produced by METARs form (0118 UTC 24 August 2017)
found at http://www.aviationweather.gov/adds/metars/
 
KROW 240051Z 12008KT 10SM CLR 29/16 A3004 RMK AO2 SLP108 T02940161
KROW 232351Z 00000KT 10SM CLR 29/16 A3003 RMK AO2 SLP103 T02940161 10311 20278 56020
KROW 232251Z 00000KT 10SM CLR 30/16 A3004 RMK AO2 SLP108 T03000161
KROW 232151Z 32004KT 10SM CLR 30/17 A3006 RMK AO2 SLP113 T03000167
KROW 232051Z 30006KT 10SM CLR 30/17 A3010 RMK AO2 SLP125 T03000167 56025
KROW 231951Z 02006KT 10SM CLR 31/17 A3012 RMK AO2 SLP131 T03060172
KROW 231851Z VRB05KT 10SM CLR 28/17 A3015 RMK AO2 SLP145 T02830167
KROW 231751Z 01009KT 10SM FEW030 28/18 A3018 RMK AO2 SLP155 T02780178 10278 20200 58008
KROW 231651Z VRB04KT 10SM SCT024 26/18 A3020 RMK AO2 SLP164 T02610183
KROW 231646Z VRB04KT 10SM FEW021 SCT028 26/18 A3020 RMK AO2
KROW 231621Z 03005KT 10SM SCT019 BKN028 25/18 A3020 RMK AO2 T02500183
KROW 231551Z 03007KT 10SM SCT017 24/19 A3021 RMK AO2 SLP168 T02440189
KROW 231451Z 02004KT 10SM CLR 23/18 A3020 RMK AO2 SLP163 T02330183 50002
KROW 231351Z 36005KT 10SM CLR 22/18 A3021 RMK AO2 SLP169 T02220183
KROW 231251Z 33006KT 9SM CLR 21/18 A3020 RMK AO2 SLP167 T02060183
KROW 231151Z 36008KT 10SM CLR 20/19 A3019 RMK AO2 SLP156 T02000189 10222 20200 58003
KROW 231051Z AUTO 35007KT 10SM CLR 20/18 A3020 RMK AO2 SLP158 T02000183
KROW 230951Z AUTO 02005KT 10SM CLR 21/18 A3020 RMK AO2 SLP158 T02060183
KROW 230851Z AUTO 36007KT 10SM FEW043 SCT065 21/18 A3020 RMK AO2 SLP159 T02110183 58006
KROW 230751Z AUTO 01005KT 10SM BKN060 22/18 A3022 RMK AO2 SLP163 T02170183
KROW 230651Z AUTO 35004KT 10SM SCT070 22/18 A3022 RMK AO2 SLP166 T02170178 403390194
KROW 230551Z AUTO 01008KT 10SM CLR 22/17 A3022 RMK AO2 SLP166 60000 T02170172 10328 20217 51017
KROW 230451Z AUTO 02007KT 10SM CLR 22/17 A3022 RMK AO2 SLP167 T02220167
KROW 230351Z AUTO 04009KT 10SM CLR 23/17 A3020 RMK AO2 SLP160 T02330167
KROW 230251Z AUTO 03009KT 10SM FEW120 25/18 A3016 RMK AO2 SLP151 60000 T02500183 53021
KROW 230151Z 03010KT 10SM CLR 26/19 A3013 RMK AO2 RAE09 SLP143 P0000 T02560189
KROW 232342Z 2400/2424 13006KT P6SM FEW070 BKN200 
     FM240400 06005KT P6SM VCSH BKN060 
     TEMPO 2409/2412 BKN020 
     FM241400 01005KT P6SM SCT050 
     FM241900 13005KT P6SM VCSH BKN050